Time;durP1;ratioP1;P1;durP2;ratioP2;P2;SDS_P1;SDS_P2;PMS_P1;PMS_P2;Temp;Humidity;BMP_temperature;BMP_pressure;BME280_temperature;BME280_humidity;BME280_pressure;Samples;Min_cycle;Max_cycle;Signal;HPM_P1;HPM_P2
2022/05/31 00:01:37;;;;;;;0.40;0.20;;;15.10;78.30;;;;;;5088358;28;20435;-86
2022/05/31 00:04:06;;;;;;;0.28;0.20;;;15.20;80.60;;;;;;5088699;28;20363;-85
2022/05/31 00:06:33;;;;;;;0.20;0.20;;;15.20;80.50;;;;;;5088102;28;20883;-86
2022/05/31 00:09:00;;;;;;;0.20;0.10;;;15.20;81.80;;;;;;5088423;28;20728;-86
2022/05/31 00:11:27;;;;;;;0.90;0.20;;;15.30;82.80;;;;;;5088373;28;20868;-86
2022/05/31 00:13:54;;;;;;;0.80;0.10;;;15.40;80.10;;;;;;5088267;28;20418;-85
2022/05/31 00:16:21;;;;;;;0.52;0.20;;;15.40;80.40;;;;;;5091555;28;20384;-85
2022/05/31 00:18:48;;;;;;;0.30;0.20;;;15.30;79.50;;;;;;5092302;28;20360;-86
2022/05/31 00:21:15;;;;;;;0.73;0.32;;;15.40;81.30;;;;;;5092154;28;20377;-86
2022/05/31 00:23:43;;;;;;;0.47;0.30;;;15.50;81.30;;;;;;5092163;28;20356;-85
2022/05/31 00:26:10;;;;;;;1.17;0.40;;;15.60;82.30;;;;;;5092017;28;20908;-85
2022/05/31 00:28:37;;;;;;;1.30;0.35;;;15.60;81.10;;;;;;5092389;28;20407;-85
2022/05/31 00:31:04;;;;;;;1.33;0.20;;;15.60;80.30;;;;;;5092113;28;20361;-83
2022/05/31 00:33:31;;;;;;;2.80;0.30;;;15.70;79.50;;;;;;5092466;28;20864;-84
2022/05/31 00:35:58;;;;;;;0.45;0.20;;;15.60;78.60;;;;;;5092031;28;20460;-84
2022/05/31 00:38:25;;;;;;;2.20;0.50;;;15.60;78.80;;;;;;5092014;28;20379;-85
2022/05/31 00:40:52;;;;;;;3.00;0.40;;;15.60;80.60;;;;;;5091918;28;20379;-84
2022/05/31 00:43:22;;;;;;;4.75;0.47;;;15.50;80.90;;;;;;5091829;28;20367;-86
2022/05/31 00:45:59;;;;;;;0.40;0.20;;;15.50;80.00;;;;;;5091489;28;20453;-86
2022/05/31 00:48:44;;;;;;;2.38;0.20;;;15.50;80.50;;;;;;5091735;28;20380;-85
2022/05/31 00:51:15;;;;;;;3.25;0.40;;;15.50;81.40;;;;;;5091565;28;20360;-85
2022/05/31 00:53:47;;;;;;;3.60;0.30;;;15.70;79.60;;;;;;5091716;28;20361;-86
2022/05/31 00:56:24;;;;;;;1.30;0.15;;;15.50;79.20;;;;;;5091640;28;20455;-86
2022/05/31 00:59:14;;;;;;;0.20;0.20;;;15.60;80.70;;;;;;5091506;28;20375;-85
2022/05/31 01:01:47;;;;;;;0.88;0.22;;;15.70;80.60;;;;;;5091318;28;20411;-85
2022/05/31 01:04:15;;;;;;;0.50;0.20;;;15.70;79.90;;;;;;5073264;28;20388;-85
2022/05/31 01:06:42;;;;;;;1.35;0.10;;;15.70;80.20;;;;;;5091283;28;20399;-85
2022/05/31 01:09:09;;;;;;;0.25;0.20;;;15.70;79.80;;;;;;5091194;28;20849;-85
2022/05/31 01:11:43;;;;;;;0.52;0.10;;;15.70;80.60;;;;;;5091150;28;20391;-85
2022/05/31 01:14:11;;;;;;;0.60;0.20;;;15.90;80.20;;;;;;5091085;28;20379;-85
2022/05/31 01:16:57;;;;;;;2.70;0.20;;;15.80;79.20;;;;;;5091028;28;20372;-85
2022/05/31 01:22:09;;;;;;;0.95;0.20;;;16.00;78.80;;;;;;5091253;28;20355;-85
2022/05/31 01:25:04;;;;;;;1.42;0.20;;;16.00;77.10;;;;;;5091185;28;20710;-86
2022/05/31 01:27:50;;;;;;;0.20;0.20;;;15.90;78.00;;;;;;5089615;28;20392;-87
2022/05/31 01:30:19;;;;;;;0.60;0.10;;;15.90;78.00;;;;;;5091070;28;20369;-85
2022/05/31 01:32:57;;;;;;;2.03;0.20;;;15.90;76.40;;;;;;5072822;28;20375;-85
2022/05/31 01:35:33;;;;;;;1.83;0.20;;;16.00;78.40;;;;;;5090662;28;20898;-85
2022/05/31 01:38:22;;;;;;;4.05;0.90;;;16.10;80.30;;;;;;5090717;28;20368;-85
2022/05/31 01:41:06;;;;;;;2.70;0.65;;;16.20;80.80;;;;;;5091044;28;20368;-86
2022/05/31 01:43:34;;;;;;;1.15;0.30;;;16.30;80.60;;;;;;5091136;28;20770;-85
2022/05/31 01:46:19;;;;;;;1.52;0.20;;;16.10;78.00;;;;;;5090579;28;20888;-85
2022/05/31 01:48:47;;;;;;;1.45;0.30;;;16.00;79.50;;;;;;5090505;28;20364;-85
2022/05/31 01:51:14;;;;;;;2.07;0.20;;;16.10;79.40;;;;;;5072434;28;20466;-85
2022/05/31 01:53:41;;;;;;;1.30;0.30;;;16.00;79.30;;;;;;5090365;28;20371;-86
2022/05/31 01:56:11;;;;;;;2.25;0.50;;;15.90;81.30;;;;;;5090437;28;20377;-86
2022/05/31 01:58:42;;;;;;;2.60;1.00;;;15.70;81.70;;;;;;5090357;28;20372;-85
2022/05/31 02:01:10;;;;;;;1.80;0.60;;;15.70;81.70;;;;;;5090353;28;20860;-85
2022/05/31 02:03:40;;;;;;;2.40;0.30;;;15.90;82.00;;;;;;5090382;28;20376;-86
2022/05/31 02:06:28;;;;;;;2.60;0.25;;;16.00;81.50;;;;;;5090155;28;20432;-86
2022/05/31 02:08:56;;;;;;;0.40;0.30;;;15.80;79.80;;;;;;5090195;28;20360;-85
2022/05/31 02:11:24;;;;;;;1.37;0.20;;;16.00;79.60;;;;;;5090458;28;20859;-85
2022/05/31 02:13:51;;;;;;;0.80;0.30;;;16.10;77.10;;;;;;5090128;28;20381;-87
2022/05/31 02:16:18;;;;;;;2.45;0.40;;;16.30;77.40;;;;;;5090077;28;20442;-84
2022/05/31 02:21:35;;;;;;;1.20;0.10;;;16.10;76.60;;;;;;5090490;28;20422;-86
2022/05/31 02:24:13;;;;;;;0.77;0.10;;;16.20;74.40;;;;;;5090222;28;20836;-85
2022/05/31 02:26:42;;;;;;;0.77;0.30;;;16.30;73.00;;;;;;5089842;28;20754;-86
2022/05/31 02:29:11;;;;;;;0.93;0.20;;;16.10;70.00;;;;;;5089813;28;20876;-86
2022/05/31 02:31:39;;;;;;;1.80;0.30;;;16.10;72.80;;;;;;5089850;28;20415;-86
2022/05/31 02:34:07;;;;;;;0.80;0.20;;;16.10;71.70;;;;;;5071311;28;20368;-86
2022/05/31 02:36:34;;;;;;;3.17;0.40;;;16.10;73.40;;;;;;5089989;28;20383;-85
2022/05/31 02:39:02;;;;;;;1.33;0.28;;;15.90;73.00;;;;;;5088691;28;20373;-85
2022/05/31 02:41:30;;;;;;;3.83;0.38;;;15.80;75.90;;;;;;5089887;28;20840;-85
2022/05/31 02:43:58;;;;;;;3.92;0.63;;;15.90;74.40;;;;;;5089401;28;20377;-85
2022/05/31 02:46:26;;;;;;;0.98;0.20;;;15.70;74.40;;;;;;5089430;28;20513;-85
2022/05/31 02:48:53;;;;;;;1.95;0.40;;;15.70;76.90;;;;;;5071185;28;20459;-86
2022/05/31 02:51:20;;;;;;;1.50;0.32;;;15.70;77.80;;;;;;5089396;28;20376;-85
2022/05/31 02:53:47;;;;;;;0.30;0.20;;;15.70;77.70;;;;;;5089802;28;20388;-86
2022/05/31 02:56:14;;;;;;;0.95;0.30;;;15.80;77.80;;;;;;5089258;28;20399;-86
2022/05/31 02:58:41;;;;;;;0.80;0.32;;;15.90;77.40;;;;;;5089179;28;20442;-86
2022/05/31 03:01:32;;;;;;;1.55;0.38;;;16.00;76.50;;;;;;5089222;28;20371;-86
2022/05/31 03:03:59;;;;;;;2.08;0.30;;;16.30;77.90;;;;;;5089050;28;20364;-85
2022/05/31 03:06:27;;;;;;;0.50;0.20;;;16.60;75.40;;;;;;5088920;28;20773;-85
2022/05/31 03:08:54;;;;;;;1.40;0.20;;;16.70;75.30;;;;;;5089201;28;20720;-86
2022/05/31 03:11:30;;;;;;;1.17;0.30;;;16.40;74.60;;;;;;5089092;28;20443;-86
2022/05/31 03:14:05;;;;;;;0.50;0.20;;;16.10;75.30;;;;;;5089167;28;20447;-86
2022/05/31 03:16:35;;;;;;;1.50;0.30;;;15.70;74.70;;;;;;5091029;28;20352;-86
2022/05/31 03:19:07;;;;;;;0.50;0.20;;;15.60;76.30;;;;;;5092747;28;20379;-86
2022/05/31 03:21:42;;;;;;;0.80;0.20;;;15.60;75.60;;;;;;5089417;28;20356;-86
2022/05/31 03:24:17;;;;;;;0.63;0.20;;;15.40;75.00;;;;;;5089044;28;20377;-86
2022/05/31 03:26:46;;;;;;;0.50;0.10;;;15.20;75.90;;;;;;5088899;28;20392;-86
2022/05/31 03:29:13;;;;;;;0.80;0.30;;;15.10;76.00;;;;;;5089734;28;20397;-86
2022/05/31 03:31:40;;;;;;;0.50;0.20;;;15.10;77.80;;;;;;5089668;28;20390;-86
2022/05/31 03:34:07;;;;;;;1.20;0.20;;;15.20;79.70;;;;;;5089580;28;20409;-86
2022/05/31 03:36:35;;;;;;;2.30;0.30;;;15.20;78.40;;;;;;5088980;28;20409;-86
2022/05/31 03:39:02;;;;;;;0.57;0.20;;;15.20;78.30;;;;;;5088613;28;20376;-86
2022/05/31 03:41:34;;;;;;;0.55;0.20;;;15.20;77.60;;;;;;5088577;28;20387;-85
2022/05/31 03:44:01;;;;;;;1.00;0.20;;;15.20;77.70;;;;;;5088968;28;20844;-87
2022/05/31 03:46:28;;;;;;;0.30;0.20;;;15.10;77.80;;;;;;5088446;28;20903;-87
2022/05/31 03:48:55;;;;;;;1.65;0.30;;;15.20;77.40;;;;;;5088849;28;20365;-86
2022/05/31 03:51:22;;;;;;;0.70;0.20;;;15.10;76.90;;;;;;5095124;28;20373;-86
2022/05/31 03:53:49;;;;;;;0.50;0.20;;;15.20;76.30;;;;;;5077351;28;20368;-86
2022/05/31 03:56:16;;;;;;;1.10;0.20;;;15.10;77.30;;;;;;5095538;28;20376;-87
2022/05/31 03:58:43;;;;;;;1.38;0.30;;;15.20;77.90;;;;;;5077074;28;20365;-85
2022/05/31 04:01:10;;;;;;;0.75;0.22;;;15.40;76.70;;;;;;5095175;28;20702;-84
2022/05/31 04:03:37;;;;;;;0.63;0.20;;;15.20;75.50;;;;;;5076969;28;20376;-85
2022/05/31 04:06:05;;;;;;;0.90;0.13;;;14.90;75.10;;;;;;5094934;28;20474;-86
2022/05/31 04:08:32;;;;;;;0.80;0.20;;;14.80;75.90;;;;;;5095093;28;20451;-85
2022/05/31 04:10:59;;;;;;;0.68;0.30;;;14.80;76.80;;;;;;5095144;28;20777;-85
2022/05/31 04:13:28;;;;;;;2.37;0.20;;;14.90;75.60;;;;;;5094973;28;20848;-86
2022/05/31 04:16:16;;;;;;;2.10;0.40;;;14.80;75.20;;;;;;5077537;28;20373;-85
2022/05/31 04:18:43;;;;;;;1.52;0.30;;;15.00;75.70;;;;;;5095205;28;20364;-84
2022/05/31 04:21:13;;;;;;;4.30;0.40;;;15.10;74.20;;;;;;5094871;28;20376;-85
2022/05/31 04:23:58;;;;;;;3.10;0.20;;;15.10;76.20;;;;;;5094995;28;20867;-85
2022/05/31 04:26:32;;;;;;;1.10;0.30;;;15.10;75.60;;;;;;5076800;28;20399;-87
2022/05/31 04:28:59;;;;;;;0.35;0.20;;;15.10;75.70;;;;;;5076816;28;20365;-86
2022/05/31 04:31:26;;;;;;;0.60;0.30;;;15.00;75.10;;;;;;5076878;28;20736;-86
2022/05/31 04:33:54;;;;;;;0.90;0.30;;;15.10;75.90;;;;;;5094678;28;20425;-86
2022/05/31 04:36:22;;;;;;;1.48;0.30;;;15.00;73.90;;;;;;5094909;28;20380;-85
2022/05/31 04:38:49;;;;;;;3.03;0.40;;;15.00;75.40;;;;;;5094926;28;20368;-86
2022/05/31 04:41:34;;;;;;;1.20;0.20;;;14.90;73.60;;;;;;5094927;28;20400;-86
2022/05/31 04:44:04;;;;;;;1.42;0.32;;;14.80;74.20;;;;;;5094874;28;20367;-87
2022/05/31 04:46:33;;;;;;;0.40;0.10;;;14.70;75.10;;;;;;5094690;28;20403;-86
2022/05/31 04:49:02;;;;;;;1.35;0.28;;;14.50;75.10;;;;;;5094704;28;20360;-86
2022/05/31 04:51:32;;;;;;;0.80;0.32;;;14.50;76.70;;;;;;5094739;28;20433;-86
2022/05/31 04:53:59;;;;;;;0.60;0.50;;;14.60;76.70;;;;;;5076864;28;20729;-86
2022/05/31 04:56:27;;;;;;;1.25;0.32;;;15.10;76.70;;;;;;5094977;28;20368;-86
2022/05/31 04:58:54;;;;;;;1.20;0.38;;;15.30;74.70;;;;;;5094588;28;20380;-86
2022/05/31 05:01:23;;;;;;;0.85;0.30;;;15.30;75.10;;;;;;5092568;28;20413;-86
2022/05/31 05:03:51;;;;;;;1.10;0.47;;;15.30;77.70;;;;;;5091656;28;20502;-86
2022/05/31 05:06:19;;;;;;;1.17;0.50;;;14.90;76.50;;;;;;5091344;28;20428;-86
2022/05/31 05:08:47;;;;;;;0.90;0.28;;;14.80;77.80;;;;;;5091768;28;20357;-86
2022/05/31 05:11:17;;;;;;;0.40;0.25;;;14.60;78.40;;;;;;5091360;28;20732;-86
2022/05/31 05:13:45;;;;;;;4.05;0.40;;;14.80;77.00;;;;;;5091268;28;20383;-86
2022/05/31 05:16:13;;;;;;;0.30;0.20;;;14.80;77.60;;;;;;5091206;28;20376;-86
2022/05/31 05:18:40;;;;;;;0.95;0.30;;;14.80;77.00;;;;;;5091693;28;20866;-86
2022/05/31 05:21:10;;;;;;;1.35;0.30;;;14.80;78.40;;;;;;5091052;28;20418;-86
2022/05/31 05:23:37;;;;;;;0.70;0.30;;;14.80;79.10;;;;;;5091085;28;20376;-86
2022/05/31 05:26:05;;;;;;;1.08;0.30;;;14.60;79.90;;;;;;5090948;28;20404;-86
2022/05/31 05:31:30;;;;;;;0.68;0.30;;;14.20;81.20;;;;;;5090924;28;20414;-87
2022/05/31 05:34:00;;;;;;;0.95;0.30;;;14.20;82.50;;;;;;5068243;28;20429;-87
2022/05/31 05:36:28;;;;;;;0.50;0.30;;;14.00;85.40;;;;;;5090704;28;20449;-86
2022/05/31 05:38:55;;;;;;;0.80;0.40;;;13.70;89.60;;;;;;5090723;28;20856;-86
2022/05/31 05:41:24;;;;;;;1.38;0.30;;;13.40;92.30;;;;;;5090715;28;20373;-86
2022/05/31 05:43:51;;;;;;;0.90;0.40;;;13.00;96.30;;;;;;5092452;28;20379;-86
2022/05/31 05:46:20;;;;;;;1.48;0.63;;;12.50;99.20;;;;;;5090572;28;20392;-86
2022/05/31 05:48:47;;;;;;;0.55;0.45;;;11.90;99.90;;;;;;5090818;28;20384;-86
2022/05/31 05:51:19;;;;;;;0.70;0.22;;;11.50;99.90;;;;;;5090612;28;20364;-86
2022/05/31 05:53:47;;;;;;;1.70;0.40;;;11.10;99.90;;;;;;5090584;28;20380;-86
2022/05/31 05:56:15;;;;;;;1.10;0.40;;;10.70;99.90;;;;;;5091575;28;20357;-85
2022/05/31 05:58:43;;;;;;;1.30;0.50;;;10.30;99.90;;;;;;5073371;28;20373;-85
2022/05/31 06:01:23;;;;;;;0.70;0.50;;;10.10;99.90;;;;;;5091702;28;20398;-85
2022/05/31 06:04:19;;;;;;;1.27;0.40;;;10.00;99.90;;;;;;5090462;28;20394;-84
2022/05/31 06:06:46;;;;;;;1.20;0.50;;;9.90;99.90;;;;;;5090843;28;20403;-85
2022/05/31 06:09:19;;;;;;;1.45;0.90;;;9.80;99.90;;;;;;5090710;28;20369;-85
2022/05/31 06:11:51;;;;;;;1.23;0.60;;;9.90;99.90;;;;;;5090570;28;20396;-85
2022/05/31 06:14:23;;;;;;;1.33;0.70;;;10.10;99.90;;;;;;5090298;28;20471;-84
2022/05/31 06:17:01;;;;;;;3.10;0.90;;;10.20;99.90;;;;;;5090252;28;20901;-84
2022/05/31 06:19:36;;;;;;;4.30;1.40;;;10.20;99.90;;;;;;5071849;28;20713;-84
2022/05/31 06:22:05;;;;;;;5.85;1.50;;;10.30;99.90;;;;;;5090103;28;20380;-84
2022/05/31 06:24:34;;;;;;;3.72;2.10;;;10.20;99.90;;;;;;5090442;28;20421;-84
2022/05/31 06:27:01;;;;;;;1.70;1.40;;;10.20;99.90;;;;;;5089661;28;20396;-84
2022/05/31 06:29:28;;;;;;;1.23;0.57;;;10.30;99.90;;;;;;5089837;28;20368;-84
2022/05/31 06:31:55;;;;;;;2.50;0.80;;;10.20;99.90;;;;;;5089856;28;20380;-85
2022/05/31 06:34:23;;;;;;;3.15;1.20;;;10.30;99.90;;;;;;5089584;28;20868;-87
2022/05/31 06:37:01;;;;;;;2.15;0.70;;;10.30;99.90;;;;;;5089309;28;20848;-86
2022/05/31 06:39:28;;;;;;;0.88;0.50;;;10.30;99.90;;;;;;5089693;28;20844;-86
2022/05/31 06:41:58;;;;;;;4.47;1.00;;;10.40;99.90;;;;;;5089690;28;20388;-87
2022/05/31 06:44:24;;;;;;;1.30;0.40;;;10.50;99.90;;;;;;5089614;28;20365;-86
2022/05/31 06:46:51;;;;;;;0.80;0.40;;;10.60;99.90;;;;;;5089241;28;20436;-85
2022/05/31 06:49:18;;;;;;;0.90;0.45;;;10.80;99.90;;;;;;5070522;28;20433;-87
2022/05/31 06:57:34;;;;;;;4.57;1.30;;;10.70;99.90;;;;;;5027399;28;20362;-85
2022/05/31 07:00:01;;;;;;;4.40;1.40;;;10.60;99.90;;;;;;5027768;28;20372;-86
2022/05/31 07:02:28;;;;;;;1.73;0.80;;;10.60;99.90;;;;;;5027139;28;20443;-86
2022/05/31 07:04:55;;;;;;;1.55;0.82;;;10.50;99.90;;;;;;5033866;28;20377;-84
2022/05/31 07:07:22;;;;;;;1.52;1.02;;;10.50;99.90;;;;;;5030131;28;20932;-85
2022/05/31 07:09:49;;;;;;;1.20;1.10;;;10.50;99.90;;;;;;5027089;28;20385;-86
2022/05/31 07:12:16;;;;;;;1.50;0.70;;;10.40;99.90;;;;;;5027040;28;20782;-85
2022/05/31 07:14:43;;;;;;;1.80;0.67;;;10.40;99.90;;;;;;5027081;28;20465;-85
2022/05/31 07:17:10;;;;;;;0.55;0.40;;;10.40;99.90;;;;;;5026673;28;20381;-85
2022/05/31 07:19:39;;;;;;;0.77;0.50;;;10.40;99.90;;;;;;5026677;28;20580;-86
2022/05/31 07:22:06;;;;;;;0.68;0.63;;;10.30;99.90;;;;;;5026621;28;20385;-86
2022/05/31 07:24:33;;;;;;;1.40;0.50;;;10.30;99.90;;;;;;5026177;28;20436;-86
2022/05/31 07:27:00;;;;;;;1.05;0.60;;;10.30;99.90;;;;;;5026852;28;20444;-85
2022/05/31 07:29:28;;;;;;;1.35;0.75;;;10.30;99.90;;;;;;5026258;28;20384;-87
2022/05/31 07:31:55;;;;;;;1.33;0.80;;;10.30;99.90;;;;;;5064837;28;20380;-89
2022/05/31 07:34:23;;;;;;;1.67;0.90;;;10.20;99.90;;;;;;5088248;28;20857;-89
2022/05/31 07:36:50;;;;;;;3.13;1.00;;;10.10;99.90;;;;;;5090498;28;20368;-88
2022/05/31 07:39:20;;;;;;;1.48;1.10;;;10.10;99.90;;;;;;5089160;28;20717;-86
2022/05/31 07:41:49;;;;;;;2.05;1.10;;;10.00;99.90;;;;;;5088660;28;20433;-84
2022/05/31 07:47:38;;;;;;;2.30;1.05;;;10.00;99.90;;;;;;5088917;28;20459;-84
2022/05/31 07:50:06;;;;;;;1.73;1.15;;;10.00;99.90;;;;;;5088564;28;20463;-84
2022/05/31 07:52:33;;;;;;;3.30;1.20;;;9.90;99.90;;;;;;5071657;28;20384;-86
2022/05/31 07:55:01;;;;;;;2.37;1.20;;;9.90;99.90;;;;;;5089418;28;20853;-85
2022/05/31 08:00:13;;;;;;;2.28;1.05;;;9.90;99.90;;;;;;5088852;28;20410;-86
2022/05/31 08:02:40;;;;;;;2.72;1.20;;;9.90;99.90;;;;;;5070368;28;20423;-82
2022/05/31 08:05:08;;;;;;;2.60;1.30;;;9.90;99.90;;;;;;5088761;28;20799;-84
2022/05/31 08:07:35;;;;;;;1.95;0.90;;;9.80;99.90;;;;;;5089149;28;20565;-84
2022/05/31 08:10:02;;;;;;;1.48;1.00;;;9.80;99.90;;;;;;5089465;28;20379;-84
2022/05/31 08:12:29;;;;;;;1.80;0.98;;;9.80;99.90;;;;;;5088771;28;20474;-84
2022/05/31 08:14:55;;;;;;;1.85;0.90;;;9.90;99.90;;;;;;5088467;28;20397;-90
2022/05/31 08:17:22;;;;;;;1.98;1.00;;;10.00;99.90;;;;;;5089491;28;20388;-83
2022/05/31 08:19:49;;;;;;;1.83;0.90;;;10.00;99.90;;;;;;5088713;28;20436;-83
2022/05/31 08:22:17;;;;;;;1.40;0.90;;;10.10;99.90;;;;;;5092674;28;20376;-86
2022/05/31 08:24:44;;;;;;;1.98;1.00;;;10.10;99.90;;;;;;5088657;28;20373;-84
2022/05/31 08:27:11;;;;;;;2.53;1.20;;;10.10;99.90;;;;;;5088619;28;20457;-84
2022/05/31 08:29:38;;;;;;;3.25;1.30;;;10.20;99.90;;;;;;5088827;28;20376;-84
2022/05/31 08:32:06;;;;;;;2.58;1.38;;;10.20;99.90;;;;;;5090205;28;20434;-86
2022/05/31 08:34:34;;;;;;;1.50;1.10;;;10.30;99.90;;;;;;5088380;28;20745;-83
2022/05/31 08:37:01;;;;;;;1.80;1.00;;;10.30;99.90;;;;;;5090173;28;20373;-83
2022/05/31 08:39:28;;;;;;;1.55;1.13;;;10.30;99.90;;;;;;5093080;28;20369;-83
2022/05/31 08:42:13;;;;;;;2.03;1.20;;;10.50;99.90;;;;;;5091871;28;20454;-83
2022/05/31 08:44:49;;;;;;;2.50;1.33;;;10.60;99.90;;;;;;5092602;28;20380;-83
2022/05/31 08:47:43;;;;;;;2.13;1.27;;;10.60;99.90;;;;;;5091770;28;20396;-84
2022/05/31 08:53:18;;;;;;;2.13;1.33;;;10.60;99.90;;;;;;5091807;28;20384;-84
2022/05/31 08:58:49;;;;;;;3.08;1.20;;;10.60;99.90;;;;;;5091635;28;20390;-87
2022/05/31 09:01:20;;;;;;;1.55;0.90;;;10.50;99.90;;;;;;5091992;28;20420;-86
2022/05/31 09:03:49;;;;;;;2.45;1.17;;;10.50;99.90;;;;;;5092074;28;20405;-85
2022/05/31 09:06:25;;;;;;;3.05;1.30;;;10.50;99.90;;;;;;5091349;28;20406;-86
2022/05/31 09:09:03;;;;;;;2.30;1.33;;;10.50;99.90;;;;;;5091237;28;20377;-85
2022/05/31 09:11:40;;;;;;;2.53;1.33;;;10.50;99.90;;;;;;5091318;28;20361;-85
2022/05/31 09:14:38;;;;;;;2.22;1.50;;;10.50;99.90;;;;;;5091937;28;20373;-87
2022/05/31 09:17:40;;;;;;;3.75;1.30;;;10.50;99.90;;;;;;5073595;28;20455;-85
2022/05/31 09:20:14;;;;;;;3.05;1.75;;;10.60;99.90;;;;;;4990171;28;20372;-84
2022/05/31 09:22:45;;;;;;;3.78;2.05;;;10.60;99.90;;;;;;4973506;28;20396;-88
2022/05/31 09:25:14;;;;;;;7.45;6.60;;;10.50;99.90;;;;;;4993637;28;20393;-89
2022/05/31 09:27:46;;;;;;;3.37;1.83;;;10.50;99.90;;;;;;4992227;28;20443;-84
2022/05/31 09:30:24;;;;;;;3.47;2.03;;;10.50;99.90;;;;;;4990326;28;20456;-86
2022/05/31 09:33:16;;;;;;;3.22;1.55;;;10.70;99.90;;;;;;4973071;28;20801;-85
2022/05/31 09:36:09;;;;;;;2.20;1.10;;;10.90;99.90;;;;;;5004578;28;20500;-86
2022/05/31 09:38:48;;;;;;;2.22;1.20;;;11.00;99.40;;;;;;5008117;28;21336;-84
2022/05/31 09:41:20;;;;;;;3.38;1.38;;;11.10;98.60;;;;;;5008782;28;20483;-85
2022/05/31 09:44:06;;;;;;;2.58;1.00;;;11.20;98.10;;;;;;5008909;28;20403;-86
2022/05/31 09:46:41;;;;;;;1.88;0.80;;;11.30;97.50;;;;;;5009189;28;20421;-85
2022/05/31 09:49:29;;;;;;;2.58;0.80;;;11.30;96.90;;;;;;5009016;28;20535;-85
2022/05/31 09:51:56;;;;;;;1.65;0.82;;;11.30;96.40;;;;;;5009118;28;20454;-86
2022/05/31 09:57:29;;;;;;;1.67;0.60;;;11.20;97.60;;;;;;5091082;28;20410;-86
2022/05/31 10:00:17;;;;;;;1.55;0.50;;;11.20;97.30;;;;;;5090547;28;20364;-87
2022/05/31 10:02:44;;;;;;;1.40;0.63;;;11.30;96.90;;;;;;5090704;28;20405;-87
2022/05/31 10:08:34;;;;;;;1.77;0.80;;;11.20;96.80;;;;;;5090708;28;20368;-84
2022/05/31 10:11:30;;;;;;;1.90;0.65;;;11.20;96.70;;;;;;5090528;28;20740;-86
2022/05/31 10:13:58;;;;;;;1.73;0.75;;;11.30;95.80;;;;;;5082873;28;20866;-86
2022/05/31 10:16:34;;;;;;;3.35;0.60;;;11.40;94.70;;;;;;5090719;28;20380;-85
2022/05/31 10:19:08;;;;;;;3.50;0.70;;;11.60;92.60;;;;;;5088911;28;20375;-85
2022/05/31 10:21:43;;;;;;;1.40;0.50;;;11.90;91.60;;;;;;5090310;28;20436;-86
2022/05/31 10:24:16;;;;;;;1.40;0.60;;;11.80;91.50;;;;;;5090039;28;20479;-84
2022/05/31 10:26:45;;;;;;;1.02;0.50;;;11.70;91.80;;;;;;5090679;28;20400;-85
2022/05/31 10:29:21;;;;;;;1.70;0.60;;;11.60;91.70;;;;;;5088854;28;20396;-86
2022/05/31 10:31:50;;;;;;;2.33;0.70;;;11.50;92.40;;;;;;5089925;28;20368;-85
2022/05/31 10:34:33;;;;;;;1.00;0.70;;;11.40;92.60;;;;;;5089919;28;20376;-84
2022/05/31 10:37:03;;;;;;;2.60;0.90;;;11.30;93.40;;;;;;5090049;28;20399;-85
2022/05/31 10:39:36;;;;;;;1.40;0.90;;;11.10;94.00;;;;;;5089589;28;20740;-85
2022/05/31 10:42:09;;;;;;;4.20;1.10;;;11.10;94.60;;;;;;5089597;28;20365;-85
2022/05/31 10:45:04;;;;;;;1.70;0.80;;;11.00;94.10;;;;;;5089485;28;20368;-85
2022/05/31 10:47:31;;;;;;;3.15;1.13;;;11.00;94.50;;;;;;5086654;28;20411;-87
2022/05/31 10:49:58;;;;;;;1.95;1.20;;;10.90;94.60;;;;;;5089386;28;20365;-86
2022/05/31 10:52:38;;;;;;;3.75;2.55;;;10.90;94.70;;;;;;5071043;28;20425;-86
2022/05/31 10:55:18;;;;;;;3.10;1.73;;;11.00;94.50;;;;;;5089490;28;20360;-86
2022/05/31 10:58:06;;;;;;;3.17;2.05;;;10.90;94.90;;;;;;5089905;28;20368;-87
2022/05/31 11:00:50;;;;;;;1.42;0.75;;;10.90;95.70;;;;;;5070913;28;20372;-88
2022/05/31 11:03:20;;;;;;;2.72;1.35;;;10.90;95.30;;;;;;5090068;28;20396;-86
2022/05/31 11:06:15;;;;;;;;;;;;;;;;;;;;;
2022/05/31 11:11:46;;;;;;;1.30;0.90;;;10.90;95.00;;;;;;5089355;28;20363;-88
2022/05/31 11:14:22;;;;;;;2.03;0.68;;;10.80;94.90;;;;;;5089763;28;20369;-85
2022/05/31 11:17:08;;;;;;;1.65;0.90;;;10.80;94.20;;;;;;5071293;28;20750;-86
2022/05/31 11:20:13;;;;;;;1.65;0.80;;;10.90;93.90;;;;;;5089542;28;20376;-87
2022/05/31 11:23:02;;;;;;;1.10;0.52;;;10.80;94.40;;;;;;4987573;28;20392;-85
2022/05/31 11:25:55;;;;;;;4.00;0.70;;;10.70;94.80;;;;;;4970446;28;20987;-87
2022/05/31 11:29:00;;;;;;;3.33;0.82;;;10.60;95.30;;;;;;4987752;28;20381;-86
2022/05/31 11:31:46;;;;;;;2.95;1.30;;;10.40;95.70;;;;;;4971234;28;20380;-86
2022/05/31 11:34:21;;;;;;;1.77;0.90;;;10.30;96.20;;;;;;4990271;28;20391;-86
2022/05/31 11:37:06;;;;;;;1.90;1.00;;;10.20;96.50;;;;;;5007622;28;20407;-86
2022/05/31 11:40:10;;;;;;;2.42;0.85;;;10.10;96.80;;;;;;5007197;28;20901;-86
2022/05/31 11:43:04;;;;;;;1.83;0.90;;;10.10;97.10;;;;;;5007117;28;20376;-86
2022/05/31 11:45:55;;;;;;;1.67;0.90;;;9.90;97.80;;;;;;5006914;28;20374;-86
2022/05/31 11:48:52;;;;;;;1.77;0.90;;;9.90;97.50;;;;;;5006886;28;20482;-84
2022/05/31 11:58:18;;;;;;;2.20;0.90;;;10.80;92.10;;;;;;5006295;28;20458;-85
2022/05/31 12:01:03;;;;;;;1.90;0.80;;;10.80;92.60;;;;;;5006825;28;20375;-86
2022/05/31 12:03:42;;;;;;;1.42;0.70;;;11.00;88.50;;;;;;5007516;28;20390;-86
2022/05/31 12:06:29;;;;;;;2.05;0.68;;;11.20;87.70;;;;;;5007121;28;20395;-86
2022/05/31 12:09:08;;;;;;;2.30;0.82;;;11.10;88.40;;;;;;5006724;28;20413;-86
2022/05/31 12:11:50;;;;;;;2.07;0.80;;;11.10;86.80;;;;;;5008855;28;20383;-86
2022/05/31 12:14:20;;;;;;;1.15;0.68;;;10.90;87.70;;;;;;5010518;28;20378;-86
2022/05/31 12:16:47;;;;;;;1.27;0.70;;;10.80;88.00;;;;;;5010668;28;20395;-85
2022/05/31 12:19:37;;;;;;;2.33;0.80;;;10.80;87.70;;;;;;5010569;28;20387;-85
2022/05/31 12:22:26;;;;;;;1.83;0.80;;;10.70;87.70;;;;;;5010876;28;20388;-85
2022/05/31 12:28:54;;;;;;;2.17;0.75;;;10.60;88.10;;;;;;5048210;28;20437;-85
2022/05/31 12:31:29;;;;;;;1.58;0.88;;;10.60;87.10;;;;;;5090402;28;20364;-85
2022/05/31 12:34:32;;;;;;;2.95;0.80;;;10.60;86.70;;;;;;5091945;28;20361;-85
2022/05/31 12:37:09;;;;;;;1.63;0.70;;;10.70;86.10;;;;;;4991010;28;20411;-86
2022/05/31 12:39:41;;;;;;;2.53;0.90;;;10.70;86.20;;;;;;4990565;28;20492;-85
2022/05/31 12:42:14;;;;;;;2.05;0.88;;;10.70;86.90;;;;;;4990845;28;20895;-86
2022/05/31 12:44:48;;;;;;;2.70;1.00;;;10.70;87.50;;;;;;4974079;28;20397;-86
2022/05/31 12:47:22;;;;;;;2.47;1.17;;;10.60;87.80;;;;;;4990319;28;20404;-86
2022/05/31 12:50:06;;;;;;;1.63;1.05;;;10.50;89.00;;;;;;4990439;28;20466;-86
2022/05/31 12:53:17;;;;;;;2.05;1.08;;;10.40;90.30;;;;;;4990382;28;20396;-86
2022/05/31 12:55:44;;;;;;;1.92;1.33;;;10.40;90.60;;;;;;4973855;28;20392;-86
2022/05/31 12:58:29;;;;;;;1.85;0.90;;;10.40;91.30;;;;;;4990420;28;20859;-86
2022/05/31 13:00:57;;;;;;;2.00;1.05;;;10.30;92.10;;;;;;4990814;28;20381;-86
2022/05/31 13:03:33;;;;;;;2.42;1.20;;;10.20;92.80;;;;;;4990077;28;20420;-86
2022/05/31 13:06:09;;;;;;;3.40;0.90;;;10.10;93.10;;;;;;4989904;28;20396;-86
2022/05/31 13:08:59;;;;;;;2.40;1.02;;;10.10;92.90;;;;;;4990589;28;20465;-86
2022/05/31 13:20:36;;;;;;;2.72;0.90;;;10.00;94.30;;;;;;5092071;28;20901;-86
2022/05/31 13:23:17;;;;;;;3.20;1.10;;;9.80;94.90;;;;;;5090823;28;20464;-86
2022/05/31 13:26:04;;;;;;;2.60;1.20;;;9.70;95.70;;;;;;5074475;28;20813;-85
2022/05/31 13:28:34;;;;;;;2.58;1.10;;;9.70;96.10;;;;;;5096434;28;20454;-85
2022/05/31 13:31:21;;;;;;;2.45;1.05;;;9.60;96.70;;;;;;5095504;28;20365;-85
2022/05/31 13:34:08;;;;;;;2.93;1.00;;;9.60;96.80;;;;;;5094591;28;20404;-86
2022/05/31 13:36:48;;;;;;;2.03;0.90;;;9.70;96.10;;;;;;5071597;28;20880;-87
2022/05/31 13:39:17;;;;;;;3.05;1.20;;;9.70;96.00;;;;;;5071077;28;20408;-86
2022/05/31 13:41:50;;;;;;;2.58;0.90;;;9.70;96.40;;;;;;5053179;28;20381;-86
2022/05/31 13:44:30;;;;;;;2.28;0.88;;;9.70;96.10;;;;;;5053110;28;20366;-86
2022/05/31 13:47:11;;;;;;;3.70;1.10;;;9.60;96.40;;;;;;5070503;28;20484;-86
2022/05/31 13:49:42;;;;;;;2.15;0.80;;;9.50;96.40;;;;;;5070493;28;20354;-86
2022/05/31 13:52:31;;;;;;;2.50;0.95;;;9.50;96.50;;;;;;5070517;28;20370;-86
2022/05/31 13:55:18;;;;;;;2.10;0.85;;;9.40;97.10;;;;;;5070718;28;20370;-86
2022/05/31 13:58:00;;;;;;;3.67;0.80;;;9.40;97.20;;;;;;5070933;28;20381;-87
2022/05/31 14:00:44;;;;;;;1.98;0.70;;;9.30;97.30;;;;;;5070331;28;20394;-85
2022/05/31 14:03:27;;;;;;;2.30;0.77;;;9.40;96.60;;;;;;5070767;28;20374;-86
2022/05/31 14:05:58;;;;;;;2.08;0.90;;;9.50;95.60;;;;;;5070143;28;20380;-86
2022/05/31 14:08:40;;;;;;;1.90;0.90;;;9.90;93.70;;;;;;5069989;28;20465;-86
2022/05/31 14:11:33;;;;;;;2.00;0.85;;;10.00;92.30;;;;;;5070710;28;20370;-86
2022/05/31 14:14:06;;;;;;;1.30;0.60;;;10.00;91.20;;;;;;4969534;28;20386;-86
2022/05/31 14:16:43;;;;;;;2.38;0.65;;;10.20;89.60;;;;;;4969577;28;20375;-86